createdAt,value
2017-07-31T00:01:47.082Z,3.17
2017-07-31T00:04:16.641Z,2.17
2017-07-31T00:06:45.032Z,2.80
2017-07-31T00:09:14.166Z,3.20
2017-07-31T00:11:44.933Z,2.60
2017-07-31T00:14:13.294Z,2.53
2017-07-31T00:16:41.677Z,2.97
2017-07-31T00:19:10.341Z,2.70
2017-07-31T00:21:38.676Z,3.37
2017-07-31T00:24:06.998Z,2.20
2017-07-31T00:26:35.941Z,2.27
2017-07-31T00:29:04.278Z,2.70
2017-07-31T00:31:33.669Z,2.83
2017-07-31T00:34:02.059Z,3.07
2017-07-31T00:36:30.376Z,3.33
2017-07-31T00:38:58.711Z,4.23
2017-07-31T00:41:27.574Z,2.90
2017-07-31T00:43:56.156Z,3.40
2017-07-31T00:46:25.496Z,2.90
2017-07-31T00:48:54.550Z,3.47
2017-07-31T00:51:23.171Z,3.93
2017-07-31T00:53:51.788Z,2.53
2017-07-31T00:56:20.776Z,2.97
2017-07-31T00:58:49.330Z,2.90
2017-07-31T01:01:17.871Z,3.27
2017-07-31T01:03:47.333Z,3.50
2017-07-31T01:06:16.980Z,3.60
2017-07-31T01:08:46.095Z,3.20
2017-07-31T01:11:15.314Z,2.63
2017-07-31T01:13:44.524Z,2.70
2017-07-31T01:16:14.508Z,3.10
2017-07-31T01:18:44.966Z,2.87
2017-07-31T01:21:15.147Z,3.07
2017-07-31T01:23:44.759Z,2.63
2017-07-31T01:26:14.059Z,3.33
2017-07-31T01:28:43.232Z,2.83
2017-07-31T01:31:12.389Z,2.93
2017-07-31T01:33:43.275Z,3.27
2017-07-31T01:36:13.005Z,3.63
2017-07-31T01:38:43.337Z,3.87
2017-07-31T01:41:13.193Z,4.47
2017-07-31T01:43:42.063Z,3.40
2017-07-31T01:46:10.556Z,3.63
2017-07-31T01:48:40.093Z,3.17
2017-07-31T01:51:08.517Z,3.10
2017-07-31T01:53:36.892Z,4.47
2017-07-31T01:56:05.888Z,3.40
2017-07-31T01:58:34.202Z,3.57
2017-07-31T02:01:03.286Z,4.47
2017-07-31T02:03:32.714Z,4.10
2017-07-31T02:06:01.038Z,4.83
2017-07-31T02:08:29.418Z,3.10
2017-07-31T02:10:58.237Z,3.67
2017-07-31T02:13:26.568Z,5.50
2017-07-31T02:15:56.051Z,3.50
2017-07-31T02:18:25.250Z,4.20
2017-07-31T02:20:53.694Z,3.57
2017-07-31T02:23:22.125Z,3.50
2017-07-31T02:25:51.536Z,5.10
2017-07-31T02:28:19.991Z,4.27
2017-07-31T02:30:49.414Z,3.70
2017-07-31T02:33:18.425Z,3.80
2017-07-31T02:35:46.839Z,3.93
2017-07-31T02:38:15.358Z,5.87
2017-07-31T02:40:44.930Z,6.10
2017-07-31T02:43:13.455Z,4.63
2017-07-31T02:45:42.132Z,4.20
2017-07-31T02:48:11.096Z,4.60
2017-07-31T02:50:39.466Z,4.33
2017-07-31T02:53:07.791Z,4.40
2017-07-31T02:55:36.337Z,4.10
2017-07-31T02:58:05.288Z,3.83
2017-07-31T03:00:33.635Z,4.27
2017-07-31T03:03:03.573Z,4.33
2017-07-31T03:05:31.901Z,3.57
2017-07-31T03:08:00.205Z,4.70
2017-07-31T03:10:28.754Z,3.93
2017-07-31T03:12:57.114Z,4.13
2017-07-31T03:15:25.548Z,4.57
2017-07-31T03:17:55.852Z,4.37
2017-07-31T03:20:24.937Z,4.30
2017-07-31T03:22:54.080Z,3.40
2017-07-31T03:25:23.410Z,4.80
2017-07-31T03:27:51.946Z,3.60
2017-07-31T03:30:20.751Z,4.43
2017-07-31T03:32:49.409Z,3.83
2017-07-31T03:35:18.109Z,3.50
2017-07-31T03:37:46.726Z,4.13
2017-07-31T03:40:16.737Z,4.23
2017-07-31T03:42:45.941Z,4.07
2017-07-31T03:45:16.443Z,3.50
2017-07-31T03:47:47.024Z,3.20
2017-07-31T03:50:38.477Z,3.57
2017-07-31T03:53:08.142Z,3.47
2017-07-31T03:55:36.527Z,3.20
2017-07-31T03:58:05.649Z,2.80
2017-07-31T04:00:34.636Z,3.63
2017-07-31T04:03:02.981Z,3.10
2017-07-31T04:05:31.365Z,3.63
2017-07-31T04:07:59.952Z,5.60
2017-07-31T04:10:28.275Z,4.00
2017-07-31T04:12:57.640Z,4.47
2017-07-31T04:15:26.333Z,4.37
2017-07-31T04:17:55.376Z,4.10
2017-07-31T04:20:23.903Z,5.80
2017-07-31T04:22:53.072Z,5.10
2017-07-31T04:25:21.549Z,4.60
2017-07-31T04:27:50.340Z,5.17
2017-07-31T04:30:19.012Z,4.13
2017-07-31T04:32:47.745Z,4.27
2017-07-31T04:35:16.734Z,4.20
2017-07-31T04:37:47.266Z,5.70
2017-07-31T04:40:16.605Z,5.83
2017-07-31T04:42:46.305Z,6.10
2017-07-31T04:45:17.126Z,7.07
2017-07-31T04:47:46.818Z,6.60
2017-07-31T04:50:16.089Z,7.03
2017-07-31T04:52:45.438Z,7.90
2017-07-31T04:55:14.586Z,6.30
2017-07-31T04:57:45.152Z,7.43
2017-07-31T05:00:15.512Z,6.47
2017-07-31T05:02:44.320Z,9.17
2017-07-31T05:05:14.638Z,9.10
2017-07-31T05:07:44.338Z,8.40
2017-07-31T05:10:13.272Z,8.97
2017-07-31T05:12:42.078Z,8.67
2017-07-31T05:15:10.964Z,8.13
2017-07-31T05:17:39.465Z,8.20
2017-07-31T05:20:07.881Z,7.70
2017-07-31T05:22:36.509Z,7.77
2017-07-31T05:25:04.839Z,8.17
2017-07-31T05:27:33.928Z,7.30
2017-07-31T05:30:03.125Z,7.20
2017-07-31T05:32:31.463Z,7.77
2017-07-31T05:35:01.561Z,7.70
2017-07-31T05:37:30.697Z,6.70
2017-07-31T05:39:59.031Z,7.43
2017-07-31T05:42:27.390Z,6.80
2017-07-31T05:44:55.813Z,6.50
2017-07-31T05:47:24.246Z,6.20
2017-07-31T05:49:52.693Z,5.53
2017-07-31T05:52:21.574Z,5.57
2017-07-31T05:54:51.071Z,5.40
2017-07-31T05:57:19.602Z,6.87
2017-07-31T05:59:48.588Z,5.77
2017-07-31T06:02:17.267Z,4.80
2017-07-31T06:04:46.068Z,5.00
2017-07-31T06:07:15.383Z,4.00
2017-07-31T06:09:44.079Z,3.43
2017-07-31T06:12:13.135Z,4.00
2017-07-31T06:14:42.237Z,4.00
2017-07-31T06:17:10.957Z,3.03
2017-07-31T06:19:39.593Z,3.53
2017-07-31T06:22:08.290Z,3.27
2017-07-31T06:24:36.701Z,3.67
2017-07-31T06:27:05.032Z,3.50
2017-07-31T06:29:34.348Z,3.00
2017-07-31T06:32:03.156Z,3.07
2017-07-31T06:34:31.540Z,2.90
2017-07-31T06:37:00.196Z,3.53
2017-07-31T06:39:28.528Z,4.07
2017-07-31T06:41:56.824Z,3.60
2017-07-31T06:44:25.757Z,3.70
2017-07-31T06:46:54.196Z,3.17
2017-07-31T06:49:22.725Z,4.27
2017-07-31T06:51:51.709Z,3.63
2017-07-31T06:54:20.147Z,3.57
2017-07-31T06:56:49.410Z,3.43
2017-07-31T06:59:18.381Z,3.50
2017-07-31T07:01:47.463Z,3.80
2017-07-31T07:04:17.011Z,2.87
2017-07-31T07:06:45.619Z,4.53
2017-07-31T07:09:15.118Z,3.27
2017-07-31T07:11:44.689Z,2.87
2017-07-31T07:14:15.148Z,2.33
2017-07-31T07:16:45.032Z,2.37
2017-07-31T07:19:17.000Z,2.03
2017-07-31T07:21:45.699Z,2.43
2017-07-31T07:24:14.270Z,2.03
2017-07-31T07:26:43.509Z,1.90
2017-07-31T07:29:12.195Z,2.80
2017-07-31T07:31:40.560Z,1.83
2017-07-31T07:34:11.898Z,2.93
2017-07-31T07:36:40.351Z,2.57
2017-07-31T07:39:08.802Z,2.40
2017-07-31T07:41:37.489Z,2.60
2017-07-31T07:44:05.864Z,2.30
2017-07-31T07:46:34.296Z,2.27
2017-07-31T07:49:04.482Z,2.20
2017-07-31T07:51:32.796Z,2.17
2017-07-31T07:54:01.109Z,2.07
2017-07-31T07:56:29.820Z,2.30
2017-07-31T07:58:58.179Z,2.37
2017-07-31T08:01:26.516Z,2.67
2017-07-31T08:03:55.493Z,2.33
2017-07-31T08:06:24.669Z,2.10
2017-07-31T08:08:53.198Z,2.47
2017-07-31T08:11:22.969Z,1.50
2017-07-31T08:13:51.379Z,1.70
2017-07-31T08:16:20.784Z,1.57
2017-07-31T08:18:49.532Z,1.67
2017-07-31T08:21:19.271Z,1.60
2017-07-31T08:23:48.447Z,1.40
2017-07-31T08:26:17.503Z,1.70
2017-07-31T08:28:46.529Z,1.47
2017-07-31T08:31:15.418Z,1.33
2017-07-31T08:33:46.083Z,1.40
2017-07-31T08:36:15.730Z,1.73
2017-07-31T08:38:44.366Z,1.80
2017-07-31T08:41:14.409Z,1.80
2017-07-31T08:43:44.429Z,1.50
2017-07-31T08:46:13.756Z,1.70
2017-07-31T08:48:42.737Z,1.20
2017-07-31T08:51:11.846Z,1.47
2017-07-31T08:53:40.327Z,1.20
2017-07-31T08:56:09.421Z,1.03
2017-07-31T08:58:37.927Z,1.00
2017-07-31T09:01:07.046Z,1.87
2017-07-31T09:03:38.619Z,1.40
2017-07-31T09:06:07.367Z,1.30
2017-07-31T09:08:35.836Z,1.50
2017-07-31T09:11:05.325Z,1.40
2017-07-31T09:13:33.621Z,1.30
2017-07-31T09:16:01.980Z,1.37
2017-07-31T09:18:32.119Z,1.60
2017-07-31T09:21:00.494Z,2.00
2017-07-31T09:23:29.431Z,1.10
2017-07-31T09:25:59.313Z,1.70
2017-07-31T09:28:27.810Z,1.10
2017-07-31T09:30:56.554Z,1.43
2017-07-31T09:33:25.977Z,1.60
2017-07-31T09:35:56.499Z,1.57
2017-07-31T09:38:25.129Z,1.40
2017-07-31T09:40:55.823Z,1.80
2017-07-31T09:43:24.541Z,1.40
2017-07-31T09:45:53.371Z,1.87
2017-07-31T09:48:23.722Z,1.10
2017-07-31T09:50:52.551Z,1.70
2017-07-31T09:53:21.298Z,1.57
2017-07-31T09:55:50.334Z,1.80
2017-07-31T09:58:19.085Z,4.80
2017-07-31T10:00:47.971Z,1.40
2017-07-31T10:03:17.460Z,1.93
2017-07-31T10:05:47.064Z,1.60
2017-07-31T10:08:16.160Z,1.60
2017-07-31T10:10:45.412Z,1.77
2017-07-31T10:13:14.484Z,1.70
2017-07-31T10:15:43.804Z,1.50
2017-07-31T10:18:13.999Z,1.50
2017-07-31T10:20:43.426Z,1.50
2017-07-31T10:23:12.114Z,1.90
2017-07-31T10:25:42.431Z,2.13
2017-07-31T10:28:13.571Z,1.73
2017-07-31T10:30:43.469Z,1.57
2017-07-31T10:33:13.969Z,1.63
2017-07-31T10:35:44.555Z,1.70
2017-07-31T10:38:13.623Z,1.60
2017-07-31T10:40:42.437Z,1.83
2017-07-31T10:43:13.599Z,1.73
2017-07-31T10:45:42.283Z,1.30
2017-07-31T10:48:13.769Z,1.40
2017-07-31T10:50:44.910Z,1.60
2017-07-31T10:53:15.407Z,1.70
2017-07-31T10:55:44.253Z,1.70
2017-07-31T10:58:13.674Z,1.70
2017-07-31T11:00:43.386Z,2.00
2017-07-31T11:03:13.213Z,1.40
2017-07-31T11:05:42.434Z,1.40
2017-07-31T11:08:10.869Z,1.80
2017-07-31T11:10:39.265Z,2.30
2017-07-31T11:13:07.813Z,1.40
2017-07-31T11:15:36.137Z,1.53
2017-07-31T11:18:05.229Z,1.27
2017-07-31T11:20:36.022Z,1.57
2017-07-31T11:23:04.344Z,1.53
2017-07-31T11:25:32.880Z,2.20
2017-07-31T11:28:01.716Z,1.60
2017-07-31T11:30:31.064Z,2.17
2017-07-31T11:32:59.423Z,1.60
2017-07-31T11:35:28.529Z,1.60
2017-07-31T11:37:56.868Z,1.63
2017-07-31T11:40:25.665Z,1.73
2017-07-31T11:42:54.090Z,1.30
2017-07-31T11:45:22.503Z,1.70
2017-07-31T11:47:51.081Z,1.60
2017-07-31T11:50:20.660Z,1.70
2017-07-31T11:52:49.185Z,1.70
2017-07-31T11:55:17.647Z,1.80
2017-07-31T11:57:46.570Z,1.83
2017-07-31T12:00:15.854Z,1.83
2017-07-31T12:02:45.399Z,1.73
2017-07-31T12:05:14.229Z,2.27
2017-07-31T12:07:43.150Z,1.27
2017-07-31T12:10:11.724Z,1.30
2017-07-31T12:12:40.452Z,1.17
2017-07-31T12:15:08.900Z,1.30
2017-07-31T12:17:37.278Z,2.70
2017-07-31T12:20:07.634Z,1.77
2017-07-31T12:22:36.730Z,1.50
2017-07-31T12:25:05.109Z,1.73
2017-07-31T12:27:33.694Z,1.60
2017-07-31T12:30:02.020Z,1.83
2017-07-31T12:32:30.456Z,1.70
2017-07-31T12:34:58.858Z,1.60
2017-07-31T12:37:27.546Z,2.10
2017-07-31T12:39:56.204Z,1.40
2017-07-31T12:42:25.480Z,2.40
2017-07-31T12:44:54.386Z,1.47
2017-07-31T12:47:23.130Z,1.63
2017-07-31T12:49:52.261Z,1.73
2017-07-31T12:52:22.377Z,2.07
2017-07-31T12:54:51.147Z,1.93
2017-07-31T12:57:20.266Z,1.40
2017-07-31T12:59:48.738Z,1.43
2017-07-31T13:02:17.917Z,1.40
2017-07-31T13:04:46.638Z,2.20
2017-07-31T13:07:15.165Z,2.03
2017-07-31T13:09:44.133Z,1.57
2017-07-31T13:12:13.475Z,1.67
2017-07-31T13:14:42.347Z,1.37
2017-07-31T13:17:10.794Z,1.23
2017-07-31T13:19:39.378Z,1.30
2017-07-31T13:22:07.735Z,1.33
2017-07-31T13:24:36.235Z,1.40
2017-07-31T13:27:06.408Z,1.73
2017-07-31T13:29:34.740Z,1.73
2017-07-31T13:32:03.145Z,1.33
2017-07-31T13:34:32.629Z,1.40
2017-07-31T13:37:01.247Z,1.20
2017-07-31T13:39:29.601Z,2.13
2017-07-31T13:41:59.287Z,1.27
2017-07-31T13:44:28.416Z,1.47
2017-07-31T13:46:56.841Z,1.53
2017-07-31T13:49:25.764Z,1.50
2017-07-31T13:51:54.297Z,1.27
2017-07-31T13:54:22.970Z,1.57
2017-07-31T13:56:52.230Z,1.80
2017-07-31T13:59:20.916Z,1.73
2017-07-31T14:01:49.440Z,1.80
2017-07-31T14:04:18.566Z,1.93
2017-07-31T14:06:47.027Z,1.77
2017-07-31T14:09:15.533Z,1.73
2017-07-31T14:11:44.525Z,1.63
2017-07-31T14:14:13.397Z,2.40
2017-07-31T14:16:41.889Z,1.80
2017-07-31T14:19:12.102Z,1.90
2017-07-31T14:21:40.789Z,1.60
2017-07-31T14:24:09.379Z,1.40
2017-07-31T14:26:39.468Z,1.30
2017-07-31T14:29:07.845Z,2.03
2017-07-31T14:31:36.181Z,1.83
2017-07-31T14:34:06.069Z,1.50
2017-07-31T14:36:35.140Z,1.70
2017-07-31T14:39:03.534Z,2.30
2017-07-31T14:41:32.359Z,2.10
2017-07-31T14:44:00.681Z,2.17
2017-07-31T14:46:29.030Z,2.80
2017-07-31T14:48:58.313Z,1.93
2017-07-31T14:51:26.856Z,1.23
2017-07-31T14:53:56.336Z,1.50
2017-07-31T14:56:25.272Z,1.77
2017-07-31T14:58:53.836Z,1.40
2017-07-31T15:01:22.479Z,1.50
2017-07-31T15:03:51.424Z,2.40
2017-07-31T15:06:19.875Z,1.73
2017-07-31T15:08:48.973Z,2.10
2017-07-31T15:11:20.947Z,1.70
2017-07-31T15:13:49.435Z,1.73
2017-07-31T15:16:18.390Z,1.50
2017-07-31T15:18:47.990Z,1.90
2017-07-31T15:21:18.136Z,1.67
2017-07-31T15:23:47.552Z,1.77
2017-07-31T15:26:16.519Z,2.20
2017-07-31T15:28:45.480Z,2.43
2017-07-31T15:31:14.557Z,2.10
2017-07-31T15:33:44.983Z,1.63
2017-07-31T15:36:15.280Z,1.80
2017-07-31T15:38:45.126Z,1.97
2017-07-31T15:41:16.341Z,1.80
2017-07-31T15:43:45.897Z,2.10
2017-07-31T15:46:15.395Z,1.57
2017-07-31T15:48:46.282Z,1.87
2017-07-31T15:51:15.639Z,1.70
2017-07-31T15:53:44.445Z,1.83
2017-07-31T15:56:13.569Z,1.50
2017-07-31T15:58:42.597Z,2.20
2017-07-31T16:01:11.286Z,2.97
2017-07-31T16:03:40.004Z,1.60
2017-07-31T16:06:09.263Z,1.60
2017-07-31T16:08:37.796Z,1.90
2017-07-31T16:11:06.777Z,1.93
2017-07-31T16:13:35.143Z,2.13
2017-07-31T16:16:03.811Z,1.83
2017-07-31T16:18:32.700Z,2.50
2017-07-31T16:21:01.080Z,2.60
2017-07-31T16:23:29.626Z,1.90
2017-07-31T16:25:58.434Z,2.70
2017-07-31T16:28:27.956Z,2.37
2017-07-31T16:30:56.573Z,1.70
2017-07-31T16:33:25.737Z,4.70
2017-07-31T16:35:54.214Z,2.13
2017-07-31T16:38:28.592Z,1.33
2017-07-31T16:40:57.005Z,1.73
2017-07-31T16:43:37.395Z,2.00
2017-07-31T16:46:17.674Z,2.20
2017-07-31T16:48:47.390Z,1.83
2017-07-31T16:51:16.114Z,1.80
2017-07-31T16:53:44.943Z,1.67
2017-07-31T16:56:15.131Z,1.70
2017-07-31T16:58:44.219Z,1.60
2017-07-31T17:01:13.792Z,2.30
2017-07-31T17:03:44.501Z,1.70
2017-07-31T17:06:13.456Z,2.20
2017-07-31T17:08:42.229Z,1.90
2017-07-31T17:11:11.137Z,2.40
2017-07-31T17:13:39.497Z,2.30
2017-07-31T17:16:07.919Z,2.60
2017-07-31T17:18:36.932Z,2.00
2017-07-31T17:21:05.243Z,2.03
2017-07-31T17:23:34.359Z,2.30
2017-07-31T17:26:02.941Z,2.07
2017-07-31T17:28:31.291Z,2.40
2017-07-31T17:30:59.625Z,2.17
2017-07-31T17:33:28.965Z,2.20
2017-07-31T17:35:58.299Z,1.97
2017-07-31T17:38:26.853Z,1.87
2017-07-31T17:40:56.491Z,1.70
2017-07-31T17:43:26.159Z,1.97
2017-07-31T17:45:55.550Z,1.90
2017-07-31T17:48:24.780Z,1.80
2017-07-31T17:50:53.895Z,2.90
2017-07-31T17:53:23.149Z,3.43
2017-07-31T17:55:52.492Z,2.70
2017-07-31T17:58:21.056Z,3.13
2017-07-31T18:00:49.518Z,3.20
2017-07-31T18:03:18.712Z,2.90
2017-07-31T18:05:47.194Z,2.60
2017-07-31T18:08:15.777Z,2.40
2017-07-31T18:10:46.083Z,2.60
2017-07-31T18:13:14.555Z,2.70
2017-07-31T18:15:43.453Z,4.40
2017-07-31T18:18:12.990Z,2.93
2017-07-31T18:20:42.405Z,2.20
2017-07-31T18:23:10.758Z,2.60
2017-07-31T18:25:39.715Z,2.93
2017-07-31T18:28:08.861Z,2.77
2017-07-31T18:30:37.201Z,2.90
2017-07-31T18:33:05.730Z,3.40
2017-07-31T18:35:34.066Z,3.87
2017-07-31T18:38:02.428Z,2.50
2017-07-31T18:40:31.130Z,3.60
2017-07-31T18:42:59.468Z,3.00
2017-07-31T18:45:28.234Z,3.00
2017-07-31T18:47:57.057Z,4.17
2017-07-31T18:50:25.572Z,3.97
2017-07-31T18:52:55.092Z,4.47
2017-07-31T18:55:24.054Z,4.90
2017-07-31T18:57:52.409Z,4.70
2017-07-31T19:00:22.608Z,5.00
2017-07-31T19:02:51.689Z,4.97
2017-07-31T19:05:20.930Z,4.43
2017-07-31T19:07:50.210Z,3.90
2017-07-31T19:10:18.941Z,3.73
2017-07-31T19:12:47.580Z,4.17
2017-07-31T19:15:17.021Z,3.83
2017-07-31T19:17:45.953Z,3.93
2017-07-31T19:20:15.221Z,3.60
2017-07-31T19:22:44.644Z,4.90
2017-07-31T19:25:13.601Z,6.20
2017-07-31T19:27:43.884Z,4.87
2017-07-31T19:30:13.467Z,4.40
2017-07-31T19:32:42.587Z,5.97
2017-07-31T19:35:11.835Z,4.17
2017-07-31T19:37:40.230Z,4.40
2017-07-31T19:40:09.822Z,3.90
2017-07-31T19:42:38.216Z,4.40
2017-07-31T19:45:06.573Z,4.27
2017-07-31T19:47:36.791Z,4.07
2017-07-31T19:50:05.114Z,4.40
2017-07-31T19:52:33.549Z,3.97
2017-07-31T19:55:02.446Z,5.10
2017-07-31T19:57:31.698Z,4.30
2017-07-31T20:00:00.067Z,4.57
2017-07-31T20:02:29.117Z,4.97
2017-07-31T20:04:57.493Z,5.40
2017-07-31T20:07:25.926Z,5.10
2017-07-31T20:09:54.713Z,4.63
2017-07-31T20:12:23.194Z,5.00
2017-07-31T20:14:52.032Z,4.00
2017-07-31T20:17:22.130Z,4.87
2017-07-31T20:19:51.525Z,4.70
2017-07-31T20:22:20.039Z,4.63
2017-07-31T20:24:49.061Z,5.10
2017-07-31T20:27:17.496Z,4.57
2017-07-31T20:29:45.968Z,5.10
2017-07-31T20:32:15.526Z,4.90
2017-07-31T20:34:44.229Z,4.83
2017-07-31T20:37:13.708Z,5.03
2017-07-31T20:39:42.678Z,4.50
2017-07-31T20:42:11.838Z,4.40
2017-07-31T20:44:40.197Z,5.70
2017-07-31T20:47:09.943Z,4.90
2017-07-31T20:49:39.205Z,5.63
2017-07-31T20:52:07.570Z,5.13
2017-07-31T20:54:36.480Z,5.70
2017-07-31T20:57:04.799Z,4.10
2017-07-31T20:59:33.168Z,4.13
2017-07-31T21:02:02.571Z,5.10
2017-07-31T21:04:31.130Z,4.63
2017-07-31T21:06:59.481Z,5.30
2017-07-31T21:09:28.167Z,4.77
2017-07-31T21:11:56.572Z,4.20
2017-07-31T21:14:24.989Z,4.90
2017-07-31T21:16:53.557Z,3.30
2017-07-31T21:19:22.063Z,4.40
2017-07-31T21:21:50.555Z,4.33
2017-07-31T21:24:19.540Z,5.07
2017-07-31T21:26:48.766Z,4.57
2017-07-31T21:29:17.476Z,4.13
2017-07-31T21:31:47.309Z,4.20
2017-07-31T21:34:16.837Z,5.10
2017-07-31T21:36:45.602Z,4.20
2017-07-31T21:39:14.835Z,4.60
2017-07-31T21:41:43.647Z,4.20
2017-07-31T21:44:12.103Z,4.73
2017-07-31T21:46:40.890Z,4.93
2017-07-31T21:49:09.374Z,4.60
2017-07-31T21:51:38.515Z,3.83
2017-07-31T21:54:07.120Z,4.57
2017-07-31T21:56:35.518Z,4.37
2017-07-31T21:59:05.614Z,4.13
2017-07-31T22:01:34.248Z,3.90
2017-07-31T22:04:02.586Z,5.60
2017-07-31T22:06:30.892Z,4.57
2017-07-31T22:08:59.763Z,4.53
2017-07-31T22:11:28.171Z,4.10
2017-07-31T22:13:57.301Z,5.10
2017-07-31T22:16:32.570Z,4.23
2017-07-31T22:19:01.739Z,3.83
2017-07-31T22:21:36.303Z,4.40
2017-07-31T22:24:04.633Z,3.90
2017-07-31T22:26:34.759Z,3.93
2017-07-31T22:29:03.105Z,4.27
2017-07-31T22:31:31.485Z,4.50
2017-07-31T22:33:59.869Z,4.27
2017-07-31T22:36:28.665Z,5.10
2017-07-31T22:38:57.002Z,5.10
2017-07-31T22:41:25.325Z,5.40
2017-07-31T22:43:54.870Z,4.70
2017-07-31T22:46:23.216Z,4.57
2017-07-31T22:48:51.631Z,4.57
2017-07-31T22:51:20.215Z,4.70
2017-07-31T22:53:48.667Z,4.00
2017-07-31T22:56:17.785Z,4.77
2017-07-31T22:58:46.749Z,5.60
2017-07-31T23:01:15.245Z,4.60
2017-07-31T23:03:43.823Z,4.30
2017-07-31T23:06:12.358Z,3.83
2017-07-31T23:08:40.705Z,4.27
2017-07-31T23:11:09.220Z,5.60
2017-07-31T23:13:38.608Z,4.50
2017-07-31T23:16:06.937Z,4.33
2017-07-31T23:18:35.257Z,4.83
2017-07-31T23:21:03.845Z,4.50
2017-07-31T23:23:32.928Z,4.40
2017-07-31T23:26:02.022Z,4.90
2017-07-31T23:28:30.721Z,4.40
2017-07-31T23:30:59.093Z,4.70
2017-07-31T23:33:28.432Z,4.90
2017-07-31T23:35:58.161Z,4.67
2017-07-31T23:38:26.493Z,3.90
2017-07-31T23:40:54.821Z,5.30
2017-07-31T23:43:23.549Z,4.33
2017-07-31T23:45:51.889Z,4.73
2017-07-31T23:48:20.413Z,4.70
2017-07-31T23:50:49.876Z,4.33
2017-07-31T23:53:18.279Z,4.17
2017-07-31T23:55:47.651Z,4.50
2017-07-31T23:58:17.159Z,3.50
